sensor_id;sensor_type;location;lat;lon;timestamp;P1;durP1;ratioP1;P2;durP2;ratioP2
12663;SDS011;6396;58.490;15.528;2022-08-21T00:00:10;3.67;;;1.90;;
12663;SDS011;6396;58.490;15.528;2022-08-21T00:02:45;3.60;;;2.00;;
12663;SDS011;6396;58.490;15.528;2022-08-21T00:05:14;3.83;;;2.13;;
12663;SDS011;6396;58.490;15.528;2022-08-21T00:07:41;5.50;;;2.30;;
12663;SDS011;6396;58.490;15.528;2022-08-21T00:10:08;8.23;;;2.10;;
12663;SDS011;6396;58.490;15.528;2022-08-21T00:12:35;5.00;;;1.93;;
12663;SDS011;6396;58.490;15.528;2022-08-21T00:15:03;5.67;;;2.10;;
12663;SDS011;6396;58.490;15.528;2022-08-21T00:17:32;4.43;;;2.10;;
12663;SDS011;6396;58.490;15.528;2022-08-21T00:20:00;4.07;;;2.30;;
12663;SDS011;6396;58.490;15.528;2022-08-21T00:22:27;5.97;;;2.27;;
12663;SDS011;6396;58.490;15.528;2022-08-21T00:24:57;6.03;;;2.77;;
12663;SDS011;6396;58.490;15.528;2022-08-21T00:27:24;4.33;;;2.00;;
12663;SDS011;6396;58.490;15.528;2022-08-21T00:29:50;3.80;;;2.20;;
12663;SDS011;6396;58.490;15.528;2022-08-21T00:32:19;7.10;;;1.90;;
12663;SDS011;6396;58.490;15.528;2022-08-21T00:34:47;3.50;;;2.10;;
12663;SDS011;6396;58.490;15.528;2022-08-21T00:37:16;5.57;;;1.93;;
12663;SDS011;6396;58.490;15.528;2022-08-21T00:39:43;6.07;;;2.37;;
12663;SDS011;6396;58.490;15.528;2022-08-21T00:42:09;5.47;;;2.27;;
12663;SDS011;6396;58.490;15.528;2022-08-21T00:44:40;6.23;;;2.20;;
12663;SDS011;6396;58.490;15.528;2022-08-21T00:47:07;4.50;;;2.00;;
12663;SDS011;6396;58.490;15.528;2022-08-21T00:49:35;8.00;;;2.30;;
12663;SDS011;6396;58.490;15.528;2022-08-21T00:52:02;5.90;;;2.20;;
12663;SDS011;6396;58.490;15.528;2022-08-21T00:54:32;6.97;;;2.50;;
12663;SDS011;6396;58.490;15.528;2022-08-21T00:57:01;4.10;;;1.90;;
12663;SDS011;6396;58.490;15.528;2022-08-21T00:59:34;5.33;;;2.30;;
12663;SDS011;6396;58.490;15.528;2022-08-21T01:02:03;4.63;;;2.20;;
12663;SDS011;6396;58.490;15.528;2022-08-21T01:04:32;5.67;;;2.37;;
12663;SDS011;6396;58.490;15.528;2022-08-21T01:06:59;5.77;;;2.10;;
12663;SDS011;6396;58.490;15.528;2022-08-21T01:09:26;3.80;;;2.27;;
12663;SDS011;6396;58.490;15.528;2022-08-21T01:11:54;7.27;;;2.70;;
12663;SDS011;6396;58.490;15.528;2022-08-21T01:14:21;5.60;;;2.43;;
12663;SDS011;6396;58.490;15.528;2022-08-21T01:16:50;3.40;;;2.00;;
12663;SDS011;6396;58.490;15.528;2022-08-21T01:19:18;4.23;;;2.10;;
12663;SDS011;6396;58.490;15.528;2022-08-21T01:21:48;6.20;;;2.20;;
12663;SDS011;6396;58.490;15.528;2022-08-21T01:24:15;6.07;;;2.53;;
12663;SDS011;6396;58.490;15.528;2022-08-21T01:26:42;4.77;;;2.40;;
12663;SDS011;6396;58.490;15.528;2022-08-21T01:29:12;7.07;;;2.70;;
12663;SDS011;6396;58.490;15.528;2022-08-21T01:31:42;4.47;;;2.07;;
12663;SDS011;6396;58.490;15.528;2022-08-21T01:34:09;5.03;;;2.63;;
12663;SDS011;6396;58.490;15.528;2022-08-21T01:36:37;5.90;;;2.50;;
12663;SDS011;6396;58.490;15.528;2022-08-21T01:39:05;7.60;;;2.57;;
12663;SDS011;6396;58.490;15.528;2022-08-21T01:41:32;4.93;;;2.37;;
12663;SDS011;6396;58.490;15.528;2022-08-21T01:43:59;4.17;;;2.57;;
12663;SDS011;6396;58.490;15.528;2022-08-21T01:46:26;8.27;;;2.73;;
12663;SDS011;6396;58.490;15.528;2022-08-21T01:48:53;6.07;;;2.30;;
12663;SDS011;6396;58.490;15.528;2022-08-21T01:51:20;7.63;;;2.30;;
12663;SDS011;6396;58.490;15.528;2022-08-21T01:53:46;4.70;;;2.17;;
12663;SDS011;6396;58.490;15.528;2022-08-21T01:56:16;6.37;;;2.70;;
12663;SDS011;6396;58.490;15.528;2022-08-21T01:58:44;5.27;;;2.00;;
12663;SDS011;6396;58.490;15.528;2022-08-21T02:01:12;7.20;;;3.53;;
12663;SDS011;6396;58.490;15.528;2022-08-21T02:03:40;5.53;;;2.67;;
12663;SDS011;6396;58.490;15.528;2022-08-21T02:06:12;4.80;;;2.47;;
12663;SDS011;6396;58.490;15.528;2022-08-21T02:08:42;4.53;;;2.23;;
12663;SDS011;6396;58.490;15.528;2022-08-21T02:11:09;5.33;;;2.63;;
12663;SDS011;6396;58.490;15.528;2022-08-21T02:13:38;5.37;;;2.17;;
12663;SDS011;6396;58.490;15.528;2022-08-21T02:16:05;9.27;;;2.37;;
12663;SDS011;6396;58.490;15.528;2022-08-21T02:18:33;7.13;;;2.87;;
12663;SDS011;6396;58.490;15.528;2022-08-21T02:21:00;4.07;;;2.37;;
12663;SDS011;6396;58.490;15.528;2022-08-21T02:23:27;5.17;;;2.40;;
12663;SDS011;6396;58.490;15.528;2022-08-21T02:25:54;4.13;;;2.57;;
12663;SDS011;6396;58.490;15.528;2022-08-21T02:28:22;4.27;;;2.00;;
12663;SDS011;6396;58.490;15.528;2022-08-21T02:30:50;6.57;;;2.37;;
12663;SDS011;6396;58.490;15.528;2022-08-21T02:33:18;7.60;;;2.63;;
12663;SDS011;6396;58.490;15.528;2022-08-21T02:35:46;5.87;;;3.13;;
12663;SDS011;6396;58.490;15.528;2022-08-21T02:38:14;4.90;;;2.17;;
12663;SDS011;6396;58.490;15.528;2022-08-21T02:40:45;4.87;;;2.40;;
12663;SDS011;6396;58.490;15.528;2022-08-21T02:43:13;7.17;;;2.67;;
12663;SDS011;6396;58.490;15.528;2022-08-21T02:45:41;6.80;;;2.40;;
12663;SDS011;6396;58.490;15.528;2022-08-21T02:48:11;6.50;;;2.73;;
12663;SDS011;6396;58.490;15.528;2022-08-21T02:50:41;5.17;;;2.50;;
12663;SDS011;6396;58.490;15.528;2022-08-21T02:53:10;5.50;;;2.67;;
12663;SDS011;6396;58.490;15.528;2022-08-21T02:55:41;7.77;;;3.17;;
12663;SDS011;6396;58.490;15.528;2022-08-21T02:58:09;5.70;;;2.80;;
12663;SDS011;6396;58.490;15.528;2022-08-21T03:00:37;5.03;;;2.37;;
12663;SDS011;6396;58.490;15.528;2022-08-21T03:03:05;5.90;;;2.70;;
12663;SDS011;6396;58.490;15.528;2022-08-21T03:05:34;3.57;;;2.57;;
12663;SDS011;6396;58.490;15.528;2022-08-21T03:08:03;7.23;;;2.90;;
12663;SDS011;6396;58.490;15.528;2022-08-21T03:10:34;6.83;;;2.77;;
12663;SDS011;6396;58.490;15.528;2022-08-21T03:13:01;10.37;;;3.73;;
12663;SDS011;6396;58.490;15.528;2022-08-21T03:15:28;7.40;;;2.77;;
12663;SDS011;6396;58.490;15.528;2022-08-21T03:17:56;9.67;;;2.77;;
12663;SDS011;6396;58.490;15.528;2022-08-21T03:20:24;7.17;;;3.00;;
12663;SDS011;6396;58.490;15.528;2022-08-21T03:22:54;6.77;;;2.80;;
12663;SDS011;6396;58.490;15.528;2022-08-21T03:25:21;9.20;;;2.83;;
12663;SDS011;6396;58.490;15.528;2022-08-21T03:27:51;6.40;;;2.87;;
12663;SDS011;6396;58.490;15.528;2022-08-21T03:30:20;8.40;;;2.97;;
12663;SDS011;6396;58.490;15.528;2022-08-21T03:32:47;6.60;;;3.00;;
12663;SDS011;6396;58.490;15.528;2022-08-21T03:35:15;6.00;;;2.60;;
12663;SDS011;6396;58.490;15.528;2022-08-21T03:37:42;7.13;;;2.77;;
12663;SDS011;6396;58.490;15.528;2022-08-21T03:40:10;6.37;;;3.27;;
12663;SDS011;6396;58.490;15.528;2022-08-21T03:42:39;7.63;;;3.10;;
12663;SDS011;6396;58.490;15.528;2022-08-21T03:45:07;5.97;;;3.30;;
12663;SDS011;6396;58.490;15.528;2022-08-21T03:47:35;6.63;;;2.70;;
12663;SDS011;6396;58.490;15.528;2022-08-21T03:50:02;8.23;;;2.93;;
12663;SDS011;6396;58.490;15.528;2022-08-21T03:52:30;9.50;;;2.70;;
12663;SDS011;6396;58.490;15.528;2022-08-21T03:54:57;7.83;;;2.90;;
12663;SDS011;6396;58.490;15.528;2022-08-21T03:57:25;6.77;;;3.00;;
12663;SDS011;6396;58.490;15.528;2022-08-21T03:59:52;9.43;;;2.90;;
12663;SDS011;6396;58.490;15.528;2022-08-21T04:02:19;5.07;;;2.80;;
12663;SDS011;6396;58.490;15.528;2022-08-21T04:04:48;5.37;;;2.93;;
12663;SDS011;6396;58.490;15.528;2022-08-21T04:07:14;6.90;;;2.97;;
12663;SDS011;6396;58.490;15.528;2022-08-21T04:09:42;7.50;;;2.80;;
12663;SDS011;6396;58.490;15.528;2022-08-21T04:12:09;6.23;;;2.90;;
12663;SDS011;6396;58.490;15.528;2022-08-21T04:14:37;7.33;;;3.17;;
12663;SDS011;6396;58.490;15.528;2022-08-21T04:17:04;8.20;;;3.00;;
12663;SDS011;6396;58.490;15.528;2022-08-21T04:19:32;5.43;;;2.53;;
12663;SDS011;6396;58.490;15.528;2022-08-21T04:21:58;8.03;;;2.70;;
12663;SDS011;6396;58.490;15.528;2022-08-21T04:24:25;4.60;;;2.73;;
12663;SDS011;6396;58.490;15.528;2022-08-21T04:26:52;8.17;;;2.90;;
12663;SDS011;6396;58.490;15.528;2022-08-21T04:29:19;6.17;;;2.80;;
12663;SDS011;6396;58.490;15.528;2022-08-21T04:31:47;5.90;;;2.90;;
12663;SDS011;6396;58.490;15.528;2022-08-21T04:34:14;6.10;;;2.60;;
12663;SDS011;6396;58.490;15.528;2022-08-21T04:36:40;6.87;;;2.43;;
12663;SDS011;6396;58.490;15.528;2022-08-21T04:39:07;6.23;;;2.40;;
12663;SDS011;6396;58.490;15.528;2022-08-21T04:41:34;11.00;;;3.23;;
12663;SDS011;6396;58.490;15.528;2022-08-21T04:44:02;6.83;;;3.20;;
12663;SDS011;6396;58.490;15.528;2022-08-21T04:46:29;5.60;;;2.70;;
12663;SDS011;6396;58.490;15.528;2022-08-21T04:48:58;11.23;;;3.23;;
12663;SDS011;6396;58.490;15.528;2022-08-21T04:51:25;9.03;;;2.83;;
12663;SDS011;6396;58.490;15.528;2022-08-21T04:53:57;5.27;;;3.00;;
12663;SDS011;6396;58.490;15.528;2022-08-21T04:56:28;6.57;;;3.13;;
12663;SDS011;6396;58.490;15.528;2022-08-21T04:58:58;7.27;;;3.30;;
12663;SDS011;6396;58.490;15.528;2022-08-21T05:01:29;10.37;;;3.07;;
12663;SDS011;6396;58.490;15.528;2022-08-21T05:04:00;7.80;;;3.47;;
12663;SDS011;6396;58.490;15.528;2022-08-21T05:06:30;4.77;;;2.80;;
12663;SDS011;6396;58.490;15.528;2022-08-21T05:09:02;5.23;;;3.30;;
12663;SDS011;6396;58.490;15.528;2022-08-21T05:11:29;8.60;;;3.60;;
12663;SDS011;6396;58.490;15.528;2022-08-21T05:13:57;6.63;;;3.03;;
12663;SDS011;6396;58.490;15.528;2022-08-21T05:16:24;7.73;;;3.30;;
12663;SDS011;6396;58.490;15.528;2022-08-21T05:18:51;8.70;;;4.30;;
12663;SDS011;6396;58.490;15.528;2022-08-21T05:21:20;8.37;;;3.23;;
12663;SDS011;6396;58.490;15.528;2022-08-21T05:23:47;8.90;;;3.10;;
12663;SDS011;6396;58.490;15.528;2022-08-21T05:26:13;13.60;;;3.57;;
12663;SDS011;6396;58.490;15.528;2022-08-21T05:28:40;8.97;;;4.43;;
12663;SDS011;6396;58.490;15.528;2022-08-21T05:31:07;7.63;;;3.67;;
12663;SDS011;6396;58.490;15.528;2022-08-21T05:33:34;10.83;;;3.30;;
12663;SDS011;6396;58.490;15.528;2022-08-21T05:36:01;8.67;;;3.53;;
12663;SDS011;6396;58.490;15.528;2022-08-21T05:38:29;5.40;;;2.90;;
12663;SDS011;6396;58.490;15.528;2022-08-21T05:40:56;7.33;;;4.03;;
12663;SDS011;6396;58.490;15.528;2022-08-21T05:43:22;6.03;;;3.00;;
12663;SDS011;6396;58.490;15.528;2022-08-21T05:45:49;5.77;;;3.07;;
12663;SDS011;6396;58.490;15.528;2022-08-21T05:48:17;10.73;;;3.90;;
12663;SDS011;6396;58.490;15.528;2022-08-21T05:50:46;9.27;;;3.27;;
12663;SDS011;6396;58.490;15.528;2022-08-21T05:53:15;5.87;;;2.90;;
12663;SDS011;6396;58.490;15.528;2022-08-21T05:55:46;7.30;;;3.33;;
12663;SDS011;6396;58.490;15.528;2022-08-21T05:58:13;6.53;;;3.03;;
12663;SDS011;6396;58.490;15.528;2022-08-21T06:00:41;8.73;;;3.60;;
12663;SDS011;6396;58.490;15.528;2022-08-21T06:03:12;8.40;;;3.43;;
12663;SDS011;6396;58.490;15.528;2022-08-21T06:05:40;7.43;;;3.00;;
12663;SDS011;6396;58.490;15.528;2022-08-21T06:08:07;9.90;;;3.20;;
12663;SDS011;6396;58.490;15.528;2022-08-21T06:10:34;9.83;;;3.23;;
12663;SDS011;6396;58.490;15.528;2022-08-21T06:13:02;7.63;;;2.90;;
12663;SDS011;6396;58.490;15.528;2022-08-21T06:15:30;11.90;;;3.40;;
12663;SDS011;6396;58.490;15.528;2022-08-21T06:17:57;6.27;;;3.03;;
12663;SDS011;6396;58.490;15.528;2022-08-21T06:20:23;5.10;;;2.80;;
12663;SDS011;6396;58.490;15.528;2022-08-21T06:22:50;6.60;;;3.30;;
12663;SDS011;6396;58.490;15.528;2022-08-21T06:25:17;10.03;;;3.30;;
12663;SDS011;6396;58.490;15.528;2022-08-21T06:27:44;6.93;;;2.90;;
12663;SDS011;6396;58.490;15.528;2022-08-21T06:30:13;8.03;;;3.37;;
12663;SDS011;6396;58.490;15.528;2022-08-21T06:32:40;7.00;;;3.47;;
12663;SDS011;6396;58.490;15.528;2022-08-21T06:35:07;6.20;;;2.70;;
12663;SDS011;6396;58.490;15.528;2022-08-21T06:37:36;6.10;;;2.80;;
12663;SDS011;6396;58.490;15.528;2022-08-21T06:40:03;11.83;;;3.70;;
12663;SDS011;6396;58.490;15.528;2022-08-21T06:42:31;8.13;;;2.63;;
12663;SDS011;6396;58.490;15.528;2022-08-21T06:44:58;7.43;;;2.80;;
12663;SDS011;6396;58.490;15.528;2022-08-21T06:47:26;6.90;;;3.30;;
12663;SDS011;6396;58.490;15.528;2022-08-21T06:49:53;8.50;;;3.10;;
12663;SDS011;6396;58.490;15.528;2022-08-21T06:52:19;8.10;;;3.10;;
12663;SDS011;6396;58.490;15.528;2022-08-21T06:54:46;10.70;;;3.20;;
12663;SDS011;6396;58.490;15.528;2022-08-21T06:57:13;3.77;;;2.37;;
12663;SDS011;6396;58.490;15.528;2022-08-21T06:59:42;6.03;;;2.90;;
12663;SDS011;6396;58.490;15.528;2022-08-21T07:02:09;6.00;;;2.70;;
12663;SDS011;6396;58.490;15.528;2022-08-21T07:04:38;6.37;;;3.20;;
12663;SDS011;6396;58.490;15.528;2022-08-21T07:07:05;8.90;;;2.90;;
12663;SDS011;6396;58.490;15.528;2022-08-21T07:09:32;9.00;;;2.83;;
12663;SDS011;6396;58.490;15.528;2022-08-21T07:11:59;8.23;;;3.30;;
12663;SDS011;6396;58.490;15.528;2022-08-21T07:14:26;7.40;;;2.87;;
12663;SDS011;6396;58.490;15.528;2022-08-21T07:16:53;6.77;;;3.00;;
12663;SDS011;6396;58.490;15.528;2022-08-21T07:19:20;6.23;;;3.23;;
12663;SDS011;6396;58.490;15.528;2022-08-21T07:21:48;9.27;;;3.70;;
12663;SDS011;6396;58.490;15.528;2022-08-21T07:24:15;5.60;;;2.70;;
12663;SDS011;6396;58.490;15.528;2022-08-21T07:26:42;6.13;;;2.87;;
12663;SDS011;6396;58.490;15.528;2022-08-21T07:29:09;5.37;;;3.47;;
12663;SDS011;6396;58.490;15.528;2022-08-21T07:31:35;8.17;;;3.33;;
12663;SDS011;6396;58.490;15.528;2022-08-21T07:34:02;7.53;;;2.80;;
12663;SDS011;6396;58.490;15.528;2022-08-21T07:36:29;7.07;;;2.53;;
12663;SDS011;6396;58.490;15.528;2022-08-21T07:38:57;7.33;;;2.87;;
12663;SDS011;6396;58.490;15.528;2022-08-21T07:41:25;8.00;;;2.70;;
12663;SDS011;6396;58.490;15.528;2022-08-21T07:43:54;5.43;;;2.40;;
12663;SDS011;6396;58.490;15.528;2022-08-21T07:46:22;6.97;;;2.57;;
12663;SDS011;6396;58.490;15.528;2022-08-21T07:48:50;6.03;;;2.13;;
12663;SDS011;6396;58.490;15.528;2022-08-21T07:51:18;5.67;;;2.37;;
12663;SDS011;6396;58.490;15.528;2022-08-21T07:53:47;6.10;;;2.83;;
12663;SDS011;6396;58.490;15.528;2022-08-21T07:56:17;8.27;;;2.60;;
12663;SDS011;6396;58.490;15.528;2022-08-21T07:58:44;4.47;;;2.30;;
12663;SDS011;6396;58.490;15.528;2022-08-21T08:01:11;5.83;;;2.17;;
12663;SDS011;6396;58.490;15.528;2022-08-21T08:03:38;8.90;;;2.87;;
12663;SDS011;6396;58.490;15.528;2022-08-21T08:06:05;5.17;;;2.50;;
12663;SDS011;6396;58.490;15.528;2022-08-21T08:08:37;5.27;;;2.20;;
12663;SDS011;6396;58.490;15.528;2022-08-21T08:11:04;5.80;;;2.50;;
12663;SDS011;6396;58.490;15.528;2022-08-21T08:13:37;4.60;;;2.07;;
12663;SDS011;6396;58.490;15.528;2022-08-21T08:16:05;4.73;;;2.17;;
12663;SDS011;6396;58.490;15.528;2022-08-21T08:18:32;3.40;;;1.90;;
12663;SDS011;6396;58.490;15.528;2022-08-21T08:20:59;4.23;;;2.03;;
12663;SDS011;6396;58.490;15.528;2022-08-21T08:23:25;2.20;;;1.53;;
12663;SDS011;6396;58.490;15.528;2022-08-21T08:25:52;4.70;;;2.10;;
12663;SDS011;6396;58.490;15.528;2022-08-21T08:28:19;3.85;;;1.77;;
12663;SDS011;6396;58.490;15.528;2022-08-21T08:30:48;4.97;;;1.80;;
12663;SDS011;6396;58.490;15.528;2022-08-21T08:33:15;4.82;;;2.05;;
12663;SDS011;6396;58.490;15.528;2022-08-21T08:35:44;7.72;;;2.10;;
12663;SDS011;6396;58.490;15.528;2022-08-21T08:38:12;5.38;;;1.95;;
12663;SDS011;6396;58.490;15.528;2022-08-21T08:40:44;4.47;;;1.92;;
12663;SDS011;6396;58.490;15.528;2022-08-21T08:43:17;4.38;;;1.42;;
12663;SDS011;6396;58.490;15.528;2022-08-21T08:45:46;5.50;;;1.90;;
12663;SDS011;6396;58.490;15.528;2022-08-21T08:48:26;4.03;;;2.17;;
12663;SDS011;6396;58.490;15.528;2022-08-21T08:51:06;2.75;;;1.70;;
12663;SDS011;6396;58.490;15.528;2022-08-21T08:53:51;3.72;;;1.70;;
12663;SDS011;6396;58.490;15.528;2022-08-21T08:56:27;3.90;;;1.60;;
12663;SDS011;6396;58.490;15.528;2022-08-21T08:58:57;4.47;;;1.92;;
12663;SDS011;6396;58.490;15.528;2022-08-21T09:01:29;3.47;;;1.50;;
12663;SDS011;6396;58.490;15.528;2022-08-21T09:03:56;3.00;;;1.80;;
12663;SDS011;6396;58.490;15.528;2022-08-21T09:06:34;3.47;;;1.60;;
12663;SDS011;6396;58.490;15.528;2022-08-21T09:09:23;5.55;;;1.50;;
12663;SDS011;6396;58.490;15.528;2022-08-21T09:11:57;2.60;;;1.30;;
12663;SDS011;6396;58.490;15.528;2022-08-21T09:14:32;4.78;;;1.90;;
12663;SDS011;6396;58.490;15.528;2022-08-21T09:17:16;4.72;;;1.80;;
12663;SDS011;6396;58.490;15.528;2022-08-21T09:19:57;3.70;;;1.30;;
12663;SDS011;6396;58.490;15.528;2022-08-21T09:22:37;2.63;;;1.30;;
12663;SDS011;6396;58.490;15.528;2022-08-21T09:25:12;4.40;;;1.90;;
12663;SDS011;6396;58.490;15.528;2022-08-21T09:27:44;3.05;;;1.85;;
12663;SDS011;6396;58.490;15.528;2022-08-21T09:30:12;1.90;;;1.40;;
12663;SDS011;6396;58.490;15.528;2022-08-21T09:32:40;3.38;;;1.23;;
12663;SDS011;6396;58.490;15.528;2022-08-21T09:35:08;2.28;;;1.52;;
12663;SDS011;6396;58.490;15.528;2022-08-21T09:37:45;6.00;;;1.52;;
12663;SDS011;6396;58.490;15.528;2022-08-21T09:40:17;2.05;;;1.30;;
12663;SDS011;6396;58.490;15.528;2022-08-21T09:42:53;2.72;;;1.65;;
12663;SDS011;6396;58.490;15.528;2022-08-21T09:45:21;2.47;;;1.40;;
12663;SDS011;6396;58.490;15.528;2022-08-21T09:47:49;2.85;;;1.50;;
12663;SDS011;6396;58.490;15.528;2022-08-21T09:50:19;2.65;;;1.45;;
12663;SDS011;6396;58.490;15.528;2022-08-21T09:52:48;3.05;;;1.38;;
12663;SDS011;6396;58.490;15.528;2022-08-21T09:55:22;3.05;;;1.50;;
12663;SDS011;6396;58.490;15.528;2022-08-21T09:58:14;2.42;;;1.35;;
12663;SDS011;6396;58.490;15.528;2022-08-21T10:00:41;2.35;;;1.40;;
12663;SDS011;6396;58.490;15.528;2022-08-21T10:03:11;2.25;;;1.33;;
12663;SDS011;6396;58.490;15.528;2022-08-21T10:05:49;2.63;;;1.30;;
12663;SDS011;6396;58.490;15.528;2022-08-21T10:08:18;1.92;;;1.58;;
12663;SDS011;6396;58.490;15.528;2022-08-21T10:10:45;2.53;;;1.38;;
12663;SDS011;6396;58.490;15.528;2022-08-21T10:13:19;2.35;;;1.42;;
12663;SDS011;6396;58.490;15.528;2022-08-21T10:15:51;2.63;;;1.40;;
12663;SDS011;6396;58.490;15.528;2022-08-21T10:18:29;2.85;;;1.50;;
12663;SDS011;6396;58.490;15.528;2022-08-21T10:21:02;2.00;;;1.20;;
12663;SDS011;6396;58.490;15.528;2022-08-21T10:23:36;3.42;;;1.73;;
12663;SDS011;6396;58.490;15.528;2022-08-21T10:26:11;2.58;;;1.58;;
12663;SDS011;6396;58.490;15.528;2022-08-21T10:28:48;2.28;;;1.30;;
12663;SDS011;6396;58.490;15.528;2022-08-21T10:31:25;2.45;;;1.40;;
12663;SDS011;6396;58.490;15.528;2022-08-21T10:34:04;2.83;;;1.42;;
12663;SDS011;6396;58.490;15.528;2022-08-21T10:36:44;1.30;;;1.20;;
12663;SDS011;6396;58.490;15.528;2022-08-21T10:39:19;2.83;;;1.20;;
12663;SDS011;6396;58.490;15.528;2022-08-21T10:42:02;1.98;;;1.08;;
12663;SDS011;6396;58.490;15.528;2022-08-21T10:44:44;2.03;;;1.67;;
12663;SDS011;6396;58.490;15.528;2022-08-21T10:47:20;2.67;;;1.60;;
12663;SDS011;6396;58.490;15.528;2022-08-21T10:50:00;2.25;;;1.35;;
12663;SDS011;6396;58.490;15.528;2022-08-21T10:52:45;3.05;;;1.50;;
12663;SDS011;6396;58.490;15.528;2022-08-21T10:55:23;2.25;;;1.33;;
12663;SDS011;6396;58.490;15.528;2022-08-21T10:57:54;2.35;;;1.42;;
12663;SDS011;6396;58.490;15.528;2022-08-21T11:00:26;2.35;;;1.38;;
12663;SDS011;6396;58.490;15.528;2022-08-21T11:03:01;2.53;;;1.02;;
12663;SDS011;6396;58.490;15.528;2022-08-21T11:05:35;3.03;;;1.13;;
12663;SDS011;6396;58.490;15.528;2022-08-21T11:08:08;1.90;;;0.88;;
12663;SDS011;6396;58.490;15.528;2022-08-21T11:10:39;1.83;;;1.20;;
12663;SDS011;6396;58.490;15.528;2022-08-21T11:13:11;1.52;;;1.20;;
12663;SDS011;6396;58.490;15.528;2022-08-21T11:15:45;0.90;;;0.90;;
12663;SDS011;6396;58.490;15.528;2022-08-21T11:18:23;2.97;;;1.20;;
12663;SDS011;6396;58.490;15.528;2022-08-21T11:20:59;2.22;;;1.00;;
12663;SDS011;6396;58.490;15.528;2022-08-21T11:23:31;1.95;;;1.10;;
12663;SDS011;6396;58.490;15.528;2022-08-21T11:26:07;3.50;;;1.40;;
12663;SDS011;6396;58.490;15.528;2022-08-21T11:28:42;2.30;;;1.20;;
12663;SDS011;6396;58.490;15.528;2022-08-21T11:31:21;2.72;;;1.20;;
12663;SDS011;6396;58.490;15.528;2022-08-21T11:34:09;3.50;;;1.35;;
12663;SDS011;6396;58.490;15.528;2022-08-21T11:36:50;1.35;;;1.20;;
12663;SDS011;6396;58.490;15.528;2022-08-21T11:39:30;2.83;;;1.40;;
12663;SDS011;6396;58.490;15.528;2022-08-21T11:42:06;3.20;;;1.70;;
12663;SDS011;6396;58.490;15.528;2022-08-21T11:44:47;2.78;;;1.20;;
12663;SDS011;6396;58.490;15.528;2022-08-21T11:47:25;1.90;;;1.23;;
12663;SDS011;6396;58.490;15.528;2022-08-21T11:50:04;3.85;;;1.60;;
12663;SDS011;6396;58.490;15.528;2022-08-21T11:52:40;2.70;;;1.48;;
12663;SDS011;6396;58.490;15.528;2022-08-21T11:55:11;3.28;;;1.40;;
12663;SDS011;6396;58.490;15.528;2022-08-21T11:57:44;4.73;;;1.90;;
12663;SDS011;6396;58.490;15.528;2022-08-21T12:00:18;2.25;;;1.40;;
12663;SDS011;6396;58.490;15.528;2022-08-21T12:02:49;2.20;;;1.50;;
12663;SDS011;6396;58.490;15.528;2022-08-21T12:05:24;3.17;;;2.30;;
12663;SDS011;6396;58.490;15.528;2022-08-21T12:08:02;3.97;;;1.50;;
12663;SDS011;6396;58.490;15.528;2022-08-21T12:10:32;3.73;;;1.53;;
12663;SDS011;6396;58.490;15.528;2022-08-21T12:13:08;2.17;;;1.33;;
12663;SDS011;6396;58.490;15.528;2022-08-21T12:15:47;3.17;;;2.07;;
12663;SDS011;6396;58.490;15.528;2022-08-21T12:18:23;2.00;;;1.30;;
12663;SDS011;6396;58.490;15.528;2022-08-21T12:20:59;3.93;;;1.60;;
12663;SDS011;6396;58.490;15.528;2022-08-21T12:23:31;3.97;;;1.50;;
12663;SDS011;6396;58.490;15.528;2022-08-21T12:26:14;3.43;;;1.60;;
12663;SDS011;6396;58.490;15.528;2022-08-21T12:28:48;1.87;;;1.20;;
12663;SDS011;6396;58.490;15.528;2022-08-21T12:31:19;6.63;;;1.50;;
12663;SDS011;6396;58.490;15.528;2022-08-21T12:33:50;2.80;;;1.50;;
12663;SDS011;6396;58.490;15.528;2022-08-21T12:36:23;2.17;;;1.50;;
12663;SDS011;6396;58.490;15.528;2022-08-21T12:38:54;3.23;;;1.63;;
12663;SDS011;6396;58.490;15.528;2022-08-21T12:41:25;3.30;;;1.83;;
12663;SDS011;6396;58.490;15.528;2022-08-21T12:43:57;2.63;;;1.30;;
12663;SDS011;6396;58.490;15.528;2022-08-21T12:46:27;3.20;;;1.97;;
12663;SDS011;6396;58.490;15.528;2022-08-21T12:49:02;3.53;;;1.80;;
12663;SDS011;6396;58.490;15.528;2022-08-21T12:51:36;2.00;;;1.20;;
12663;SDS011;6396;58.490;15.528;2022-08-21T12:54:21;3.37;;;1.70;;
12663;SDS011;6396;58.490;15.528;2022-08-21T12:56:55;3.30;;;1.43;;
12663;SDS011;6396;58.490;15.528;2022-08-21T12:59:23;3.17;;;1.50;;
12663;SDS011;6396;58.490;15.528;2022-08-21T13:01:50;4.03;;;1.40;;
12663;SDS011;6396;58.490;15.528;2022-08-21T13:04:22;3.00;;;1.50;;
12663;SDS011;6396;58.490;15.528;2022-08-21T13:06:54;2.00;;;1.50;;
12663;SDS011;6396;58.490;15.528;2022-08-21T13:09:27;4.00;;;1.67;;
12663;SDS011;6396;58.490;15.528;2022-08-21T13:11:55;2.73;;;1.33;;
12663;SDS011;6396;58.490;15.528;2022-08-21T13:14:25;2.40;;;1.50;;
12663;SDS011;6396;58.490;15.528;2022-08-21T13:17:01;3.10;;;1.30;;
12663;SDS011;6396;58.490;15.528;2022-08-21T13:19:30;3.37;;;1.43;;
12663;SDS011;6396;58.490;15.528;2022-08-21T13:21:58;3.30;;;1.57;;
12663;SDS011;6396;58.490;15.528;2022-08-21T13:24:25;7.03;;;1.87;;
12663;SDS011;6396;58.490;15.528;2022-08-21T13:26:56;2.07;;;1.40;;
12663;SDS011;6396;58.490;15.528;2022-08-21T13:29:23;2.50;;;1.33;;
12663;SDS011;6396;58.490;15.528;2022-08-21T13:31:56;3.33;;;1.40;;
12663;SDS011;6396;58.490;15.528;2022-08-21T13:34:28;2.30;;;1.60;;
12663;SDS011;6396;58.490;15.528;2022-08-21T13:36:58;3.77;;;1.20;;
12663;SDS011;6396;58.490;15.528;2022-08-21T13:39:28;2.23;;;1.37;;
12663;SDS011;6396;58.490;15.528;2022-08-21T13:41:57;3.07;;;1.70;;
12663;SDS011;6396;58.490;15.528;2022-08-21T13:44:31;2.73;;;1.40;;
12663;SDS011;6396;58.490;15.528;2022-08-21T13:47:01;2.50;;;1.30;;
12663;SDS011;6396;58.490;15.528;2022-08-21T13:49:31;2.17;;;1.30;;
12663;SDS011;6396;58.490;15.528;2022-08-21T13:52:00;2.53;;;1.50;;
12663;SDS011;6396;58.490;15.528;2022-08-21T13:54:33;2.07;;;1.50;;
12663;SDS011;6396;58.490;15.528;2022-08-21T13:57:02;2.77;;;1.50;;
12663;SDS011;6396;58.490;15.528;2022-08-21T13:59:30;1.57;;;1.40;;
12663;SDS011;6396;58.490;15.528;2022-08-21T14:01:59;3.50;;;1.90;;
12663;SDS011;6396;58.490;15.528;2022-08-21T14:04:35;3.43;;;1.67;;
12663;SDS011;6396;58.490;15.528;2022-08-21T14:07:14;2.50;;;1.33;;
12663;SDS011;6396;58.490;15.528;2022-08-21T14:09:45;2.33;;;1.40;;
12663;SDS011;6396;58.490;15.528;2022-08-21T14:12:14;5.37;;;1.70;;
12663;SDS011;6396;58.490;15.528;2022-08-21T14:14:43;3.13;;;1.47;;
12663;SDS011;6396;58.490;15.528;2022-08-21T14:17:14;3.00;;;1.30;;
12663;SDS011;6396;58.490;15.528;2022-08-21T14:19:52;3.17;;;1.50;;
12663;SDS011;6396;58.490;15.528;2022-08-21T14:22:23;2.23;;;1.50;;
12663;SDS011;6396;58.490;15.528;2022-08-21T14:25:02;2.50;;;1.40;;
12663;SDS011;6396;58.490;15.528;2022-08-21T14:27:31;2.50;;;1.33;;
12663;SDS011;6396;58.490;15.528;2022-08-21T14:29:59;2.57;;;1.47;;
12663;SDS011;6396;58.490;15.528;2022-08-21T14:32:30;2.57;;;1.30;;
12663;SDS011;6396;58.490;15.528;2022-08-21T14:35:03;2.93;;;1.30;;
12663;SDS011;6396;58.490;15.528;2022-08-21T14:37:31;3.27;;;1.50;;
12663;SDS011;6396;58.490;15.528;2022-08-21T14:39:58;3.17;;;1.30;;
12663;SDS011;6396;58.490;15.528;2022-08-21T14:42:26;3.33;;;1.50;;
12663;SDS011;6396;58.490;15.528;2022-08-21T14:44:55;2.47;;;1.37;;
12663;SDS011;6396;58.490;15.528;2022-08-21T14:47:26;2.20;;;1.67;;
12663;SDS011;6396;58.490;15.528;2022-08-21T14:49:53;2.77;;;1.27;;
12663;SDS011;6396;58.490;15.528;2022-08-21T14:52:20;5.07;;;1.90;;
12663;SDS011;6396;58.490;15.528;2022-08-21T14:54:49;4.73;;;1.63;;
12663;SDS011;6396;58.490;15.528;2022-08-21T14:57:15;2.43;;;1.40;;
12663;SDS011;6396;58.490;15.528;2022-08-21T14:59:44;2.10;;;1.70;;
12663;SDS011;6396;58.490;15.528;2022-08-21T15:02:11;2.77;;;1.97;;
12663;SDS011;6396;58.490;15.528;2022-08-21T15:04:38;3.23;;;1.50;;